Time;durP1;ratioP1;P1;durP2;ratioP2;P2;SDS_P1;SDS_P2;PMS_P1;PMS_P2;Temp;Humidity;BMP_temperature;BMP_pressure;BME280_temperature;BME280_humidity;BME280_pressure;Samples;Min_cycle;Max_cycle;Signal;HPM_P1;HPM_P2
2023/11/13 00:03:57;;;;;;;7.35;3.30;;;;;;;6.01;65.89;99273.81;10520500;28;20040;-63
2023/11/13 00:08:59;;;;;;;8.55;3.65;;;;;;;5.86;65.88;99284.16;10520533;28;20076;-63
2023/11/13 00:14:01;;;;;;;9.07;3.85;;;;;;;5.80;66.27;99280.09;10520532;28;20579;-63
2023/11/13 00:19:04;;;;;;;5.40;3.38;;;;;;;5.95;66.45;99275.88;10518940;28;20050;-63
2023/11/13 00:24:06;;;;;;;7.75;3.33;;;;;;;6.09;66.08;99276.00;10517302;28;20583;-63
2023/11/13 00:29:08;;;;;;;6.57;3.45;;;;;;;6.17;66.04;99260.84;10517363;28;20601;-63
2023/11/13 00:34:10;;;;;;;6.82;3.92;;;;;;;6.17;65.91;99258.25;10515798;28;20443;-63
2023/11/13 00:39:12;;;;;;;7.28;3.00;;;;;;;6.27;65.81;99226.56;10519386;28;20101;-63
2023/11/13 00:44:14;;;;;;;6.60;3.50;;;;;;;6.33;65.78;99228.84;10502592;28;20405;-63
2023/11/13 00:49:17;;;;;;;7.55;3.72;;;;;;;6.25;66.03;99237.97;10517654;28;21166;-63
2023/11/13 00:54:19;;;;;;;7.07;3.72;;;;;;;6.37;65.83;99234.72;10517834;28;20252;-63
2023/11/13 00:59:21;;;;;;;11.65;3.40;;;;;;;6.42;65.71;99234.47;10519103;28;20123;-63
2023/11/13 01:04:23;;;;;;;6.53;3.10;;;;;;;6.43;65.51;99228.38;10500222;28;20071;-63
2023/11/13 01:09:25;;;;;;;6.82;3.97;;;;;;;6.50;65.65;99230.53;10517771;28;20419;-63
2023/11/13 01:14:27;;;;;;;7.78;3.47;;;;;;;6.51;65.43;99233.97;10490119;28;20044;-63
2023/11/13 01:19:30;;;;;;;7.60;3.90;;;;;;;6.50;65.50;99224.50;10500069;28;20044;-62
2023/11/13 01:24:32;;;;;;;8.02;3.38;;;;;;;6.55;65.45;99209.53;10518112;28;20131;-62
2023/11/13 01:29:34;;;;;;;5.90;3.58;;;;;;;6.48;65.40;99201.22;10493760;28;20042;-62
2023/11/13 01:34:36;;;;;;;8.93;3.90;;;;;;;6.40;65.57;99179.16;10516404;28;20079;-62
2023/11/13 01:39:38;;;;;;;6.75;3.83;;;;;;;6.27;65.79;99189.38;10516376;28;20044;-62
2023/11/13 01:44:40;;;;;;;6.75;3.67;;;;;;;6.33;65.78;99196.84;10497749;28;20047;-62
2023/11/13 01:49:43;;;;;;;8.63;3.75;;;;;;;6.31;65.72;99196.09;10516648;28;20052;-62
2023/11/13 01:54:45;;;;;;;6.28;3.67;;;;;;;6.37;65.50;99184.56;10515319;28;20052;-63
2023/11/13 01:59:47;;;;;;;6.88;3.45;;;;;;;6.42;65.76;99185.97;10514396;28;20044;-62
2023/11/13 02:04:50;;;;;;;6.22;3.33;;;;;;;6.51;65.43;99174.25;10496865;28;20146;-62
2023/11/13 02:09:52;;;;;;;7.10;3.40;;;;;;;6.41;65.41;99162.69;10496521;28;20051;-62
2023/11/13 02:14:54;;;;;;;7.22;3.58;;;;;;;6.37;65.47;99145.59;10494769;28;20048;-63
2023/11/13 02:19:56;;;;;;;5.85;3.67;;;;;;;6.32;65.75;99148.44;10514756;28;20505;-62
2023/11/13 02:24:59;;;;;;;7.90;3.45;;;;;;;6.49;65.86;99140.53;10496201;28;20055;-62
2023/11/13 02:30:02;;;;;;;4.93;2.95;;;;;;;6.65;65.61;99145.72;10497533;28;20040;-62
2023/11/13 02:35:04;;;;;;;12.27;3.67;;;;;;;6.76;65.59;99154.59;10512930;28;20055;-62
2023/11/13 02:40:11;;;;;;;6.95;3.10;;;;;;;6.83;65.44;99140.34;10496231;28;20431;-62
2023/11/13 02:45:13;;;;;;;6.70;3.30;;;;;;;6.86;65.39;99128.91;10496113;28;20072;-62
2023/11/13 02:50:15;;;;;;;5.82;3.00;;;;;;;6.85;65.35;99128.09;10496293;28;20204;-62
2023/11/13 02:55:17;;;;;;;7.68;3.67;;;;;;;6.79;65.54;99123.25;10513619;28;20412;-62
2023/11/13 03:00:20;;;;;;;5.82;3.60;;;;;;;6.82;65.71;99130.00;10513589;28;20539;-62
2023/11/13 03:05:22;;;;;;;5.57;3.10;;;;;;;6.81;65.75;99137.00;10513467;28;20032;-62
2023/11/13 03:10:24;;;;;;;6.13;3.10;;;;;;;6.77;65.71;99142.44;10488989;28;20048;-62
2023/11/13 03:15:27;;;;;;;7.32;3.65;;;;;;;6.65;65.88;99151.78;10480123;28;20488;-62
2023/11/13 03:20:29;;;;;;;6.57;3.30;;;;;;;6.65;65.91;99156.97;10511693;28;20062;-62
2023/11/13 03:25:31;;;;;;;6.63;3.33;;;;;;;6.72;65.90;99154.84;10511819;28;20042;-62
2023/11/13 03:30:33;;;;;;;7.15;3.05;;;;;;;6.61;66.24;99159.81;10491985;28;20176;-62
2023/11/13 03:35:35;;;;;;;8.32;2.97;;;;;;;6.77;66.16;99152.84;10482401;28;20051;-62
2023/11/13 03:40:38;;;;;;;7.38;3.05;;;;;;;6.88;66.06;99153.03;10512028;28;20048;-62
2023/11/13 03:45:40;;;;;;;5.80;3.35;;;;;;;6.81;66.11;99146.53;10512672;28;20040;-62
2023/11/13 03:50:42;;;;;;;5.07;3.38;;;;;;;6.74;66.34;99132.19;10510898;28;20514;-62
2023/11/13 03:55:44;;;;;;;7.90;3.30;;;;;;;6.85;66.25;99120.28;10512082;28;20036;-62
2023/11/13 04:00:46;;;;;;;6.00;3.08;;;;;;;6.89;66.17;99111.41;10510326;28;20472;-62
2023/11/13 04:05:48;;;;;;;5.43;3.08;;;;;;;6.96;66.08;99117.06;10494996;28;20052;-62
2023/11/13 04:10:51;;;;;;;6.03;2.90;;;;;;;6.95;66.13;99108.44;10511532;28;20044;-63
2023/11/13 04:15:53;;;;;;;6.50;3.13;;;;;;;6.93;66.23;99119.84;10510629;28;20079;-62
2023/11/13 04:20:58;;;;;;;11.18;3.78;;;;;;;6.96;66.21;99119.66;10492416;28;20513;-63
2023/11/13 04:26:00;;;;;;;6.85;2.88;;;;;;;6.92;66.32;99129.41;10513256;28;20052;-62
2023/11/13 04:31:02;;;;;;;5.28;2.95;;;;;;;6.93;66.62;99132.84;10510844;28;20855;-63
2023/11/13 04:36:05;;;;;;;4.45;2.70;;;;;;;6.93;66.52;99140.63;10512988;28;20127;-62
2023/11/13 04:41:15;;;;;;;6.22;2.95;;;;;;;7.02;66.44;99129.72;10511987;28;20419;-62
2023/11/13 04:46:17;;;;;;;6.00;3.25;;;;;;;7.10;66.36;99122.31;10520890;28;20113;-62
2023/11/13 04:51:19;;;;;;;4.28;2.83;;;;;;;7.15;66.11;99120.25;10500850;28;20108;-62
2023/11/13 04:56:21;;;;;;;5.18;2.80;;;;;;;7.15;66.17;99131.50;10519915;28;20084;-62
2023/11/13 05:01:23;;;;;;;4.38;2.50;;;;;;;6.90;66.30;99133.00;10500034;28;20040;-62
2023/11/13 05:06:26;;;;;;;5.28;2.47;;;;;;;6.85;66.61;99122.91;10518625;28;20048;-62
2023/11/13 05:11:28;;;;;;;4.55;2.40;;;;;;;6.88;66.68;99112.31;10517142;28;20048;-62
2023/11/13 05:16:30;;;;;;;4.55;2.28;;;;;;;7.04;66.56;99120.88;10517879;28;21035;-60
2023/11/13 05:21:32;;;;;;;5.50;2.92;;;;;;;7.06;66.46;99132.03;10517864;28;20446;-62
2023/11/13 05:26:35;;;;;;;5.78;2.60;;;;;;;7.08;66.49;99150.16;10516453;28;20043;-62
2023/11/13 05:31:37;;;;;;;5.63;3.05;;;;;;;7.13;66.45;99161.13;10517887;28;20508;-62
2023/11/13 05:36:39;;;;;;;5.15;3.05;;;;;;;7.23;66.38;99174.41;10515226;28;20547;-62
2023/11/13 05:41:41;;;;;;;4.82;3.10;;;;;;;7.09;66.56;99183.88;10518447;28;20048;-62
2023/11/13 05:46:43;;;;;;;6.60;3.13;;;;;;;6.83;66.98;99168.06;10508495;28;21036;-63
2023/11/13 05:51:46;;;;;;;7.15;3.40;;;;;;;6.78;67.37;99164.88;10516428;28;20070;-62
2023/11/13 05:56:48;;;;;;;6.90;3.08;;;;;;;6.94;67.12;99150.09;10514511;28;20047;-62
2023/11/13 06:01:51;;;;;;;5.07;2.72;;;;;;;7.02;67.08;99145.31;10498622;28;20125;-62
2023/11/13 06:06:53;;;;;;;5.28;2.50;;;;;;;7.06;66.92;99141.63;10496722;28;20488;-62
2023/11/13 06:11:55;;;;;;;4.07;2.60;;;;;;;7.13;66.91;99122.97;10514965;28;20056;-62
2023/11/13 06:16:57;;;;;;;10.45;2.55;;;;;;;7.13;67.00;99135.13;10514365;28;20040;-63
2023/11/13 06:22:03;;;;;;;4.35;2.50;;;;;;;7.17;66.87;99134.84;10475221;28;20970;-62
2023/11/13 06:27:06;;;;;;;5.05;2.55;;;;;;;7.08;66.94;99140.59;10511166;28;20054;-62
2023/11/13 06:32:08;;;;;;;5.05;2.50;;;;;;;7.15;67.00;99136.72;10506297;28;20048;-62
2023/11/13 06:37:10;;;;;;;5.00;2.53;;;;;;;7.14;66.79;99129.00;10503299;28;20588;-62
2023/11/13 06:42:13;;;;;;;4.95;2.65;;;;;;;7.20;66.83;99118.25;10511775;28;20063;-62
2023/11/13 06:47:16;;;;;;;3.83;2.20;;;;;;;7.15;66.83;99125.47;10508709;28;20051;-62
2023/11/13 06:52:18;;;;;;;4.05;2.35;;;;;;;7.13;66.81;99116.91;10507280;28;20162;-62
2023/11/13 06:57:20;;;;;;;4.00;2.30;;;;;;;7.12;67.08;99112.66;10488736;28;20101;-62
2023/11/13 07:02:26;;;;;;;5.80;2.53;;;;;;;7.15;66.97;99113.31;10508256;28;20056;-62
2023/11/13 07:07:30;;;;;;;4.20;2.47;;;;;;;7.03;67.15;99108.81;10512065;28;20432;-63
2023/11/13 07:12:32;;;;;;;5.07;2.67;;;;;;;6.90;67.53;99099.22;10509471;28;20055;-63
2023/11/13 07:17:36;;;;;;;4.32;2.28;;;;;;;6.79;67.67;99099.84;10514763;28;20119;-63
2023/11/13 07:22:40;;;;;;;4.47;2.50;;;;;;;6.76;67.81;99096.56;10512466;28;20054;-63
2023/11/13 07:27:43;;;;;;;4.55;2.60;;;;;;;6.83;68.00;99114.34;10510353;28;20059;-63
2023/11/13 07:32:45;;;;;;;4.50;2.55;;;;;;;7.00;67.85;99123.75;10506749;28;20054;-62
2023/11/13 07:37:47;;;;;;;5.28;2.72;;;;;;;7.12;67.71;99147.28;10509313;28;20051;-63
2023/11/13 07:42:49;;;;;;;3.72;2.28;;;;;;;7.25;67.54;99155.19;10510443;28;20152;-62
2023/11/13 07:47:51;;;;;;;3.85;2.53;;;;;;;7.38;67.20;99158.78;10508126;28;20055;-62
2023/11/13 07:52:53;;;;;;;5.90;2.58;;;;;;;7.52;67.26;99153.59;10511286;28;20109;-62
2023/11/13 07:57:56;;;;;;;5.30;2.92;;;;;;;7.62;67.15;99135.66;10511031;28;20159;-62
2023/11/13 08:02:59;;;;;;;10.75;2.63;;;;;;;7.64;67.00;99131.19;10509187;28;20052;-62
2023/11/13 08:08:02;;;;;;;4.65;2.55;;;;;;;7.61;66.92;99136.59;10512285;28;20549;-62
2023/11/13 08:13:05;;;;;;;4.75;2.40;;;;;;;7.61;67.02;99127.00;10512199;28;20060;-62
2023/11/13 08:18:07;;;;;;;3.75;2.25;;;;;;;7.74;67.02;99121.91;10515168;28;20040;-62
2023/11/13 08:23:14;;;;;;;4.43;2.53;;;;;;;7.79;66.85;99112.06;10518907;28;20051;-62
2023/11/13 08:28:16;;;;;;;6.70;2.78;;;;;;;7.63;67.01;99101.72;10521104;28;20123;-62
2023/11/13 08:33:18;;;;;;;5.20;2.67;;;;;;;7.60;67.27;99101.94;10518007;28;20039;-63
2023/11/13 08:38:20;;;;;;;4.55;2.38;;;;;;;7.67;67.32;99102.41;10519613;28;20475;-63
2023/11/13 08:43:23;;;;;;;4.68;2.58;;;;;;;7.63;67.36;99106.94;10501387;28;20135;-62
2023/11/13 08:48:25;;;;;;;5.38;2.42;;;;;;;7.72;67.43;99108.13;10519769;28;20154;-62
2023/11/13 08:53:28;;;;;;;3.70;2.40;;;;;;;7.85;67.21;99099.47;10518980;28;20048;-62
2023/11/13 08:58:30;;;;;;;4.43;2.72;;;;;;;7.91;66.97;99073.09;10510986;28;20047;-62
2023/11/13 09:03:34;;;;;;;6.30;3.03;;;;;;;7.96;66.96;99073.63;10511955;28;20139;-63
2023/11/13 09:08:36;;;;;;;7.20;2.60;;;;;;;7.95;67.13;99060.72;10514251;28;20164;-62
2023/11/13 09:13:39;;;;;;;4.75;2.25;;;;;;;7.77;67.31;99041.84;10511704;28;20139;-62
2023/11/13 09:18:41;;;;;;;3.63;2.05;;;;;;;7.72;67.63;99043.06;10508152;28;20148;-63
2023/11/13 09:23:45;;;;;;;4.18;2.10;;;;;;;7.89;67.45;99019.44;10508371;28;20048;-61
2023/11/13 09:28:47;;;;;;;5.40;2.80;;;;;;;8.01;67.30;99016.91;10496671;28;20052;-63
2023/11/13 09:33:49;;;;;;;5.25;3.25;;;;;;;7.79;67.72;99019.16;10480640;28;20078;-61
2023/11/13 09:38:53;;;;;;;10.57;2.45;;;;;;;7.57;68.29;99028.44;10493721;28;20044;-61
2023/11/13 09:43:56;;;;;;;4.13;2.00;;;;;;;7.71;68.39;99021.41;10510890;28;20039;-61
2023/11/13 09:48:59;;;;;;;3.95;2.28;;;;;;;7.82;68.17;99008.56;10511931;28;20032;-68
2023/11/13 09:54:03;;;;;;;4.88;2.50;;;;;;;7.93;68.09;98987.91;10509126;28;20875;-66
2023/11/13 09:59:07;;;;;;;3.80;2.08;;;;;;;8.04;67.99;98982.00;10491184;28;20094;-66
2023/11/13 10:04:09;;;;;;;3.65;2.13;;;;;;;8.24;67.67;98965.13;10511582;28;20086;-66
2023/11/13 10:09:11;;;;;;;4.65;2.50;;;;;;;8.40;67.28;98956.22;10507920;28;20598;-66
2023/11/13 10:14:17;;;;;;;15.93;4.32;;;;;;;8.29;67.54;98965.66;10508562;28;20071;-67
2023/11/13 10:19:20;;;;;;;6.90;2.65;;;;;;;8.30;67.66;98962.97;10493200;28;20134;-68
2023/11/13 10:24:24;;;;;;;7.30;2.40;;;;;;;8.39;67.39;98945.88;10512494;28;20044;-68
2023/11/13 10:29:42;;;;;;;4.90;2.53;;;;;;;8.33;67.65;98941.91;10511459;28;20151;-67
2023/11/13 10:34:46;;;;;;;4.43;2.28;;;;;;;8.47;67.38;98917.53;10511261;28;20111;-67
2023/11/13 10:39:48;;;;;;;5.05;2.50;;;;;;;8.51;67.37;98908.56;10508684;28;20543;-67
2023/11/13 10:45:01;;;;;;;4.82;2.42;;;;;;;8.41;67.49;98886.69;10510668;28;20048;-67
2023/11/13 10:50:15;;;;;;;4.07;2.38;;;;;;;8.45;67.47;98844.69;10508872;28;20055;-67
2023/11/13 10:55:19;;;;;;;3.88;2.30;;;;;;;8.58;67.48;98822.06;10506885;28;20127;-68
2023/11/13 11:00:21;;;;;;;5.18;2.55;;;;;;;8.58;67.35;98816.03;10508585;28;20507;-68
2023/11/13 11:05:28;;;;;;;4.68;2.90;;;;;;;8.50;67.79;98802.69;10510466;28;20042;-68
2023/11/13 11:10:31;;;;;;;4.78;2.92;;;;;;;8.69;67.55;98792.63;10490587;28;20531;-67
2023/11/13 11:16:04;;;;;;;5.75;2.88;;;;;;;8.78;67.38;98776.34;10509158;28;20048;-68
2023/11/13 11:21:07;;;;;;;4.53;2.25;;;;;;;8.91;67.41;98760.69;10507360;28;20411;-68
2023/11/13 11:26:10;;;;;;;11.25;3.42;;;;;;;8.98;67.22;98739.28;10509301;28;20079;-68
2023/11/13 11:31:30;;;;;;;8.32;3.70;;;;;;;8.96;67.28;98725.50;10502372;28;20561;-68
2023/11/13 11:36:37;;;;;;;5.88;3.58;;;;;;;9.00;67.12;98726.09;10505789;28;20547;-68
2023/11/13 11:41:43;;;;;;;8.23;4.40;;;;;;;9.01;67.25;98733.84;10484031;28;21002;-67
2023/11/13 11:46:46;;;;;;;5.80;3.45;;;;;;;9.13;67.23;98719.91;10501184;28;20431;-68
2023/11/13 11:51:49;;;;;;;7.00;4.15;;;;;;;9.31;67.11;98696.84;10495996;28;20043;-68
2023/11/13 11:57:00;;;;;;;11.55;5.78;;;;;;;9.44;66.95;98688.00;10503830;28;20718;-68
2023/11/13 12:02:03;;;;;;;11.35;5.63;;;;;;;9.41;66.71;98685.63;10500621;28;20127;-68
2023/11/13 12:07:09;;;;;;;14.98;7.05;;;;;;;9.25;67.22;98673.81;10506015;28;20040;-68
2023/11/13 12:12:12;;;;;;;12.60;5.68;;;;;;;9.39;67.16;98669.25;10486871;28;20459;-68
2023/11/13 12:17:14;;;;;;;9.68;4.90;;;;;;;9.33;67.20;98667.09;10481516;28;20177;-68
2023/11/13 12:22:17;;;;;;;8.88;4.53;;;;;;;9.40;67.43;98670.09;10485969;28;20480;-68
2023/11/13 12:27:19;;;;;;;7.95;4.57;;;;;;;9.57;67.33;98656.59;10508654;28;20052;-68
2023/11/13 12:32:21;;;;;;;9.43;4.70;;;;;;;9.73;67.32;98620.56;10484071;28;20051;-68
2023/11/13 12:37:27;;;;;;;9.25;4.32;;;;;;;9.87;67.28;98630.78;10498339;28;20044;-68
2023/11/13 12:42:30;;;;;;;6.15;3.03;;;;;;;9.78;67.06;98628.03;10498568;28;20150;-69
2023/11/13 12:47:32;;;;;;;8.23;3.97;;;;;;;9.64;67.56;98613.44;10499828;28;20158;-68
2023/11/13 12:52:37;;;;;;;8.68;4.15;;;;;;;9.69;67.55;98606.09;10499643;28;20036;-68
2023/11/13 12:57:43;;;;;;;5.93;3.42;;;;;;;9.67;67.78;98604.56;10507351;28;20048;-68
2023/11/13 13:02:52;;;;;;;4.38;2.58;;;;;;;9.74;67.54;98593.53;10490748;28;20052;-69
2023/11/13 13:07:56;;;;;;;6.72;3.28;;;;;;;9.76;67.56;98582.94;10502306;28;20051;-68
2023/11/13 13:12:59;;;;;;;4.78;3.25;;;;;;;9.74;67.75;98585.69;10505981;28;20077;-68
2023/11/13 13:18:03;;;;;;;6.38;3.67;;;;;;;9.66;68.11;98575.00;10510010;28;20462;-67
2023/11/13 13:23:06;;;;;;;9.85;4.72;;;;;;;9.84;67.98;98538.78;10512949;28;20048;-68
2023/11/13 13:28:11;;;;;;;7.32;3.92;;;;;;;9.92;67.93;98510.28;10513844;28;20077;-68
2023/11/13 13:33:16;;;;;;;11.20;4.45;;;;;;;9.89;68.09;98484.44;10508804;28;20054;-68
2023/11/13 13:38:18;;;;;;;8.80;3.40;;;;;;;9.77;68.30;98483.63;10516376;28;20071;-68
2023/11/13 13:43:22;;;;;;;11.27;3.42;;;;;;;9.69;68.44;98511.31;10513674;28;20042;-69
2023/11/13 13:48:24;;;;;;;7.10;3.00;;;;;;;9.73;68.56;98499.66;10508261;28;20138;-70
2023/11/13 13:53:31;;;;;;;10.50;3.92;;;;;;;9.83;68.65;98498.78;10495603;28;20052;-68
2023/11/13 13:58:34;;;;;;;11.40;4.97;;;;;;;9.89;68.76;98476.59;10518631;28;20044;-68
2023/11/13 14:03:36;;;;;;;5.53;3.47;;;;;;;9.89;68.94;98472.19;10501059;28;20040;-68
2023/11/13 14:08:44;;;;;;;7.13;3.90;;;;;;;9.82;69.14;98463.22;10519506;28;20144;-68
2023/11/13 14:13:51;;;;;;;9.93;4.07;;;;;;;9.59;69.96;98457.16;10518871;28;20056;-68
2023/11/13 14:18:57;;;;;;;7.03;3.58;;;;;;;9.70;70.05;98434.63;10501319;28;20056;-68
2023/11/13 14:24:03;;;;;;;10.50;4.10;;;;;;;9.88;69.94;98430.53;10518095;28;20558;-68
2023/11/13 14:29:08;;;;;;;8.27;3.88;;;;;;;9.81;69.87;98434.63;10518959;28;20052;-68
2023/11/13 14:34:10;;;;;;;5.53;2.97;;;;;;;9.86;69.79;98428.06;10517852;28;20048;-68
2023/11/13 14:39:14;;;;;;;5.47;3.08;;;;;;;10.14;70.22;98403.97;10500758;28;20794;-68
2023/11/13 14:44:16;;;;;;;4.43;2.25;;;;;;;10.46;69.99;98409.16;10515754;28;20055;-69
2023/11/13 14:49:18;;;;;;;8.73;2.40;;;;;;;10.83;71.02;98399.88;10517891;28;20133;-68
2023/11/13 14:54:20;;;;;;;2.83;1.80;;;;;;;11.16;71.15;98386.56;10517226;28;20044;-68
2023/11/13 14:59:22;;;;;;;1.38;1.10;;;;;;;11.59;71.69;98372.31;10516027;28;20040;-68
2023/11/13 15:04:24;;;;;;;2.20;1.40;;;;;;;11.96;71.23;98358.44;10512415;28;20126;-68
2023/11/13 15:09:27;;;;;;;5.70;1.70;;;;;;;12.24;71.25;98354.13;10517306;28;20048;-68
2023/11/13 15:14:30;;;;;;;1.85;1.20;;;;;;;12.44;71.01;98336.59;10512521;28;20482;-67
2023/11/13 15:19:33;;;;;;;0.82;0.80;;;;;;;12.59;71.05;98309.81;10480051;28;20063;-67
2023/11/13 15:24:35;;;;;;;1.73;0.80;;;;;;;12.71;71.25;98300.78;10511949;28;20075;-67
2023/11/13 15:29:38;;;;;;;0.98;0.82;;;;;;;12.88;71.54;98309.69;10494548;28;20491;-67
2023/11/13 15:34:41;;;;;;;0.73;0.60;;;;;;;13.05;71.53;98308.91;10515289;28;20060;-67
2023/11/13 15:39:43;;;;;;;0.90;0.77;;;;;;;13.25;71.36;98296.50;10513656;28;20058;-68
2023/11/13 15:44:45;;;;;;;1.10;1.00;;;;;;;13.36;70.98;98291.84;10515018;28;20044;-67
2023/11/13 15:49:47;;;;;;;0.93;0.90;;;;;;;13.52;71.06;98288.59;10516599;28;20060;-68
2023/11/13 15:54:51;;;;;;;0.82;0.63;;;;;;;13.59;70.74;98287.84;10513836;28;20079;-69
2023/11/13 15:59:54;;;;;;;1.27;0.93;;;;;;;13.59;70.91;98269.47;10514882;28;20138;-71
2023/11/13 16:04:58;;;;;;;0.88;0.50;;;;;;;13.60;70.38;98271.09;10513510;28;20040;-70
2023/11/13 16:10:00;;;;;;;1.00;0.80;;;;;;;13.63;70.84;98278.69;10514437;28;20036;-68
2023/11/13 16:15:03;;;;;;;1.75;0.63;;;;;;;13.77;70.82;98264.19;10513246;28;20048;-69
2023/11/13 16:20:10;;;;;;;3.10;0.77;;;;;;;13.91;70.39;98268.91;10496020;28;20048;-68
2023/11/13 16:25:13;;;;;;;0.35;0.28;;;;;;;13.98;70.49;98274.38;10511620;28;20055;-67
2023/11/13 16:30:16;;;;;;;1.05;0.50;;;;;;;13.93;70.12;98277.47;10513308;28;20080;-68
2023/11/13 16:35:18;;;;;;;2.25;0.47;;;;;;;14.18;69.75;98253.00;10513054;28;20675;-68
2023/11/13 16:40:21;;;;;;;0.50;0.38;;;;;;;14.17;70.01;98245.25;10516999;28;20130;-68
2023/11/13 16:45:23;;;;;;;0.65;0.55;;;;;;;14.14;69.28;98220.13;10521313;28;20090;-68
2023/11/13 16:50:26;;;;;;;0.40;0.40;;;;;;;14.22;69.39;98240.38;10521343;28;20488;-68
2023/11/13 16:55:31;;;;;;;0.20;0.20;;;;;;;14.12;70.65;98242.28;10520627;28;20052;-68
2023/11/13 17:00:35;;;;;;;0.10;0.10;;;;;;;14.29;69.90;98246.63;10504115;28;20177;-69
2023/11/13 17:05:37;;;;;;;0.15;0.15;;;;;;;14.39;69.63;98236.88;10516749;28;20028;-68
2023/11/13 17:10:41;;;;;;;0.85;0.30;;;;;;;14.39;70.30;98242.91;10517623;28;20048;-68
2023/11/13 17:15:43;;;;;;;0.35;0.30;;;;;;;14.38;70.45;98253.59;10447868;28;20056;-68
2023/11/13 17:20:45;;;;;;;0.45;0.20;;;;;;;14.41;70.29;98261.19;10435533;28;20055;-68
2023/11/13 17:25:47;;;;;;;0.20;0.20;;;;;;;14.39;70.92;98282.38;10435558;28;20057;-68
2023/11/13 17:30:49;;;;;;;0.20;0.20;;;;;;;14.45;70.56;98281.75;10435311;28;20057;-68
2023/11/13 17:35:52;;;;;;;1.17;0.80;;;;;;;14.47;70.55;98363.97;10434602;28;20049;-68
2023/11/13 17:40:54;;;;;;;1.30;1.02;;;;;;;14.46;70.77;98350.97;10432842;28;20063;-62
2023/11/13 17:45:57;;;;;;;0.70;0.65;;;;;;;14.39;71.49;98381.53;10416313;28;20136;-62
2023/11/13 17:51:00;;;;;;;0.35;0.35;;;;;;;14.28;71.54;98410.66;10431201;28;20053;-61
2023/11/13 17:56:02;;;;;;;0.57;0.30;;;;;;;14.29;71.24;98441.22;10434170;28;20095;-61
2023/11/13 18:01:07;;;;;;;1.30;0.50;;;;;;;14.22;70.90;98443.66;10433865;28;20049;-61
2023/11/13 18:06:09;;;;;;;1.20;0.88;;;;;;;14.26;70.60;98459.97;10432441;28;20570;-61
2023/11/13 18:11:14;;;;;;;0.50;0.50;;;;;;;14.18;70.22;98458.09;10435968;28;20084;-62
2023/11/13 18:16:16;;;;;;;1.10;0.65;;;;;;;14.11;70.12;98457.03;10499403;28;20050;-62
2023/11/13 18:21:18;;;;;;;0.68;0.50;;;;;;;13.93;69.79;98485.09;10499067;28;20416;-61
2023/11/13 18:26:20;;;;;;;0.40;0.40;;;;;;;13.83;69.81;98497.47;10516427;28;20044;-61
2023/11/13 18:31:22;;;;;;;1.17;0.47;;;;;;;13.71;69.50;98553.81;10512225;28;20488;-62
2023/11/13 18:36:25;;;;;;;1.35;0.85;;;;;;;13.67;69.83;98498.09;10514774;28;20055;-63
2023/11/13 18:41:26;;;;;;;0.50;0.47;;;;;;;13.56;69.09;98500.06;10513909;28;20145;-62
2023/11/13 18:46:30;;;;;;;0.38;0.38;;;;;;;13.36;69.32;98501.09;10516339;28;20394;-61
2023/11/13 18:51:33;;;;;;;2.22;0.75;;;;;;;13.04;69.71;98519.00;10516230;28;20063;-63
2023/11/13 18:56:35;;;;;;;1.23;0.90;;;;;;;12.96;69.81;98499.53;10497967;28;20051;-62
2023/11/13 19:01:37;;;;;;;0.80;0.80;;;;;;;12.88;69.77;98517.78;10510800;28;20050;-63
2023/11/13 19:06:42;;;;;;;1.52;0.57;;;;;;;12.79;69.68;98536.16;10516120;28;20499;-63
2023/11/13 19:11:49;;;;;;;0.50;0.47;;;;;;;12.68;69.86;98537.13;10510978;28;20412;-64
2023/11/13 19:16:52;;;;;;;3.97;0.98;;;;;;;12.48;70.24;98524.97;10495200;28;20334;-64
2023/11/13 19:21:54;;;;;;;2.92;1.42;;;;;;;12.40;69.40;98542.34;10513366;28;20040;-65
2023/11/13 19:26:57;;;;;;;5.55;2.28;;;;;;;12.26;68.67;98551.41;10513026;28;20054;-65
2023/11/13 19:31:59;;;;;;;4.75;1.73;;;;;;;12.12;67.80;98568.38;10512775;28;20691;-65
2023/11/13 19:37:03;;;;;;;3.45;1.63;;;;;;;12.06;67.48;98575.94;10514474;28;20047;-65
2023/11/13 19:42:05;;;;;;;4.20;1.42;;;;;;;11.88;67.41;98580.16;10512206;28;20150;-64
2023/11/13 19:47:08;;;;;;;5.90;1.33;;;;;;;11.82;66.97;98588.53;10513968;28;20127;-63
2023/11/13 19:52:10;;;;;;;3.25;1.70;;;;;;;11.72;66.35;98608.63;10514061;28;20056;-65
2023/11/13 19:57:13;;;;;;;3.20;1.20;;;;;;;11.69;66.05;98622.78;10514929;28;20122;-64
2023/11/13 20:02:16;;;;;;;2.58;1.30;;;;;;;11.57;65.63;98642.16;10495869;28;20047;-64
2023/11/13 20:07:18;;;;;;;8.23;1.38;;;;;;;11.44;65.35;98659.03;10496165;28;20056;-63
2023/11/13 20:12:21;;;;;;;6.30;1.25;;;;;;;11.37;63.60;98670.97;10513709;28;20845;-65
2023/11/13 20:17:23;;;;;;;2.78;1.63;;;;;;;11.35;63.94;98676.31;10522595;28;20090;-63
2023/11/13 20:22:25;;;;;;;4.07;1.40;;;;;;;11.16;62.93;98686.63;10519101;28;20401;-63
2023/11/13 20:27:27;;;;;;;2.05;1.00;;;;;;;11.01;62.02;98690.47;10521820;28;20539;-64
2023/11/13 20:32:29;;;;;;;11.45;1.73;;;;;;;10.95;60.74;98707.47;10521567;28;20062;-64
2023/11/13 20:37:32;;;;;;;3.05;1.42;;;;;;;10.94;60.82;98720.69;10521412;28;20130;-64
2023/11/13 20:42:34;;;;;;;6.43;1.90;;;;;;;10.87;60.29;98729.97;10519613;28;20450;-64
2023/11/13 20:47:37;;;;;;;4.97;2.05;;;;;;;10.89;60.83;98744.59;10502744;28;20171;-64
2023/11/13 20:52:40;;;;;;;5.68;2.15;;;;;;;10.88;60.85;98748.19;10501973;28;20653;-63
2023/11/13 20:57:44;;;;;;;4.60;1.65;;;;;;;10.76;60.66;98753.56;10518898;28;20401;-64
2023/11/13 21:02:46;;;;;;;3.58;1.42;;;;;;;10.66;60.42;98748.22;10516445;28;20526;-64
2023/11/13 21:07:49;;;;;;;4.32;1.70;;;;;;;10.67;61.03;98752.47;10513560;28;20604;-64
2023/11/13 21:12:51;;;;;;;3.95;2.17;;;;;;;10.59;61.06;98757.47;10514746;28;20145;-65
2023/11/13 21:17:54;;;;;;;7.70;2.58;;;;;;;10.45;61.02;98760.34;10513436;28;20513;-64
2023/11/13 21:22:57;;;;;;;5.68;2.47;;;;;;;10.48;60.96;98757.50;10512557;28;20492;-65
2023/11/13 21:27:59;;;;;;;6.70;2.33;;;;;;;10.43;60.67;98773.53;10496573;28;20097;-64
2023/11/13 21:33:01;;;;;;;12.15;2.78;;;;;;;10.41;61.13;98774.59;10510594;28;20055;-64
2023/11/13 21:38:04;;;;;;;4.07;1.80;;;;;;;10.34;61.18;98791.69;10514508;28;20496;-64
2023/11/13 21:43:06;;;;;;;7.80;1.50;;;;;;;10.30;61.35;98801.56;10512600;28;20036;-64
2023/11/13 21:48:08;;;;;;;6.90;2.67;;;;;;;10.31;61.31;98810.22;10514160;28;20138;-64
2023/11/13 21:53:10;;;;;;;4.05;1.70;;;;;;;10.22;60.71;98810.91;10497530;28;20051;-64
2023/11/13 21:58:12;;;;;;;5.05;1.58;;;;;;;10.22;60.43;98813.53;10517370;28;20419;-64
2023/11/13 22:03:14;;;;;;;4.47;1.67;;;;;;;10.24;61.19;98819.47;10513152;28;20052;-64
2023/11/13 22:08:17;;;;;;;3.33;1.30;;;;;;;10.19;61.11;98806.78;10515868;28;20491;-64
2023/11/13 22:13:19;;;;;;;6.05;1.88;;;;;;;10.14;61.18;98819.34;10515637;28;20260;-63
2023/11/13 22:18:22;;;;;;;6.28;2.40;;;;;;;10.14;61.02;98818.50;10515541;28;20408;-64
2023/11/13 22:23:25;;;;;;;5.55;2.15;;;;;;;10.14;60.94;98828.97;10515339;28;20055;-63
2023/11/13 22:28:27;;;;;;;6.25;2.10;;;;;;;10.06;61.48;98846.97;10498591;28;20044;-64
2023/11/13 22:33:29;;;;;;;10.90;2.20;;;;;;;10.15;61.31;98852.38;10514940;28;20508;-63
2023/11/13 22:38:31;;;;;;;3.33;1.10;;;;;;;10.13;61.28;98850.81;10514475;28;20052;-64
2023/11/13 22:43:33;;;;;;;12.02;2.72;;;;;;;10.16;61.22;98833.13;10516452;28;20058;-63
2023/11/13 22:48:35;;;;;;;7.43;2.63;;;;;;;10.15;61.33;98826.25;10515587;28;20518;-64
2023/11/13 22:53:37;;;;;;;11.57;3.25;;;;;;;10.07;61.34;98846.91;10514612;28;20047;-63
2023/11/13 22:58:39;;;;;;;5.90;1.85;;;;;;;10.02;61.24;98854.22;10496755;28;20036;-64
2023/11/13 23:03:42;;;;;;;5.55;1.83;;;;;;;10.04;61.62;98841.88;10514904;28;20128;-63
2023/11/13 23:08:44;;;;;;;8.70;2.50;;;;;;;10.09;61.55;98842.38;10497463;28;20456;-64
2023/11/13 23:13:47;;;;;;;16.25;4.10;;;;;;;10.01;61.44;98859.56;10513496;28;20052;-63
2023/11/13 23:18:49;;;;;;;11.43;3.30;;;;;;;9.85;61.59;98866.88;10514360;28;20404;-63
2023/11/13 23:23:51;;;;;;;9.95;2.70;;;;;;;9.90;61.62;98869.97;10515479;28;20047;-63
2023/11/13 23:28:53;;;;;;;6.35;1.73;;;;;;;9.98;61.69;98880.69;10511721;28;20134;-63
2023/11/13 23:33:55;;;;;;;5.32;1.85;;;;;;;9.94;61.78;98889.69;10514065;28;20381;-64
2023/11/13 23:38:57;;;;;;;9.20;2.13;;;;;;;9.95;61.81;98880.94;10514572;28;20373;-64